KLOR/LOR METAR and TAF weather

Enter ICAO airport designator
Station Type Date Time Source
KLOR METAR 2021/01/17 18:58 UTC NOAA

KLOR 171858Z AUTO 23006KT 10SM CLR 13/M02 A2999 RMK AO2 SLP140 T01281019


Station Type Date Time Source
KLOR Decoded METAR 2021/01/17 18:58 UTC NOAA

Fort Rucker, Lowe Army Heliport, AL, United States (KLOR) 31-21-32N 085-44-54W 93M
Jan 17, 2021 - 01:58 PM EST / 2021.01.17 1858 UTC
Wind: from the SW (230 degrees) at 7 MPH (6 KT):0
Visibility: 10 mile(s):0
Sky conditions: clear
Temperature: 55.0 F (12.8 C)
Dew Point: 28.6 F (-1.9 C)
Relative Humidity: 35%
Pressure (altimeter): 29.99 in. Hg (1015 hPa)
ob: KLOR 171858Z AUTO 23006KT 10SM CLR 13/M02 A2999 RMK AO2 SLP140 T01281019
cycle: 19

Station Type Date Time Source
KLOR TAF UTC NOAA

Error!

Example: see airport list